Time;durP1;ratioP1;P1;durP2;ratioP2;P2;SDS_P1;SDS_P2;PMS_P1;PMS_P2;Temp;Humidity;BMP_temperature;BMP_pressure;BME280_temperature;BME280_humidity;BME280_pressure;Samples;Min_cycle;Max_cycle;Signal;HPM_P1;HPM_P2
2023/01/23 00:01:55;;;;;;;59.13;16.20;;;;;;;;;;5035349;28;20069;-82
2023/01/23 00:04:21;;;;;;;45.22;15.48;;;;;;;;;;5035046;28;20069;-80
2023/01/23 00:06:49;;;;;;;45.45;15.27;;;;;;;;;;5035022;28;20061;-79
2023/01/23 00:09:16;;;;;;;44.95;15.63;;;;;;;;;;5031913;28;20045;-80
2023/01/23 00:11:43;;;;;;;50.42;16.27;;;;;;;;;;5030521;28;20060;-82
2023/01/23 00:14:09;;;;;;;45.00;14.85;;;;;;;;;;5032786;28;20056;-82
2023/01/23 00:16:36;;;;;;;56.38;16.05;;;;;;;;;;5032353;28;20445;-82
2023/01/23 00:19:02;;;;;;;45.13;15.18;;;;;;;;;;5035198;28;20085;-81
2023/01/23 00:21:29;;;;;;;48.60;16.02;;;;;;;;;;5031253;28;20057;-81
2023/01/23 00:23:56;;;;;;;59.63;16.98;;;;;;;;;;5035585;28;20155;-82
2023/01/23 00:26:24;;;;;;;55.75;16.83;;;;;;;;;;5030044;28;20135;-80
2023/01/23 00:28:51;;;;;;;57.95;16.17;;;;;;;;;;5032212;28;20136;-81
2023/01/23 00:31:20;;;;;;;49.03;16.50;;;;;;;;;;5034405;28;20132;-80
2023/01/23 00:33:46;;;;;;;48.95;16.17;;;;;;;;;;5032588;28;20189;-80
2023/01/23 00:36:13;;;;;;;41.03;14.85;;;;;;;;;;5029961;28;20045;-80
2023/01/23 00:38:40;;;;;;;49.75;16.20;;;;;;;;;;5030616;28;20124;-80
2023/01/23 00:41:07;;;;;;;48.58;15.70;;;;;;;;;;5030919;28;20118;-80
2023/01/23 00:43:33;;;;;;;57.70;16.45;;;;;;;;;;5030096;28;20113;-81
2023/01/23 00:46:00;;;;;;;50.00;16.50;;;;;;;;;;5030667;28;20079;-80
2023/01/23 00:48:26;;;;;;;43.80;14.65;;;;;;;;;;5029750;28;20056;-80
2023/01/23 00:50:53;;;;;;;53.63;16.45;;;;;;;;;;5031235;28;20076;-81
2023/01/23 00:53:19;;;;;;;48.80;16.45;;;;;;;;;;5030499;28;20045;-78
2023/01/23 00:55:46;;;;;;;56.03;17.15;;;;;;;;;;5029711;28;20482;-80
2023/01/23 00:58:12;;;;;;;46.70;16.73;;;;;;;;;;5031365;28;20075;-80
2023/01/23 01:00:39;;;;;;;49.35;16.65;;;;;;;;;;5032290;28;20172;-82
2023/01/23 01:03:06;;;;;;;46.70;16.27;;;;;;;;;;5036595;28;20057;-81
2023/01/23 01:05:33;;;;;;;49.17;15.57;;;;;;;;;;5018660;28;20573;-79
2023/01/23 01:08:00;;;;;;;53.90;17.30;;;;;;;;;;5034397;28;20719;-81
2023/01/23 01:10:28;;;;;;;48.40;15.75;;;;;;;;;;5036654;28;20513;-81
2023/01/23 01:12:55;;;;;;;53.58;16.83;;;;;;;;;;5036578;28;20073;-80
2023/01/23 01:15:21;;;;;;;52.05;16.73;;;;;;;;;;5036920;28;20054;-80
2023/01/23 01:17:48;;;;;;;47.67;16.25;;;;;;;;;;5034824;28;20389;-80
2023/01/23 01:20:14;;;;;;;45.08;15.88;;;;;;;;;;5035858;28;20045;-80
2023/01/23 01:22:41;;;;;;;51.10;16.27;;;;;;;;;;5035647;28;20077;-80
2023/01/23 01:25:07;;;;;;;43.42;14.65;;;;;;;;;;5035339;28;20063;-83
2023/01/23 01:27:34;;;;;;;56.20;16.80;;;;;;;;;;5036326;28;20063;-82
2023/01/23 01:30:01;;;;;;;50.78;16.48;;;;;;;;;;5037921;28;20152;-80
2023/01/23 01:32:27;;;;;;;49.80;16.27;;;;;;;;;;5038191;28;20216;-82
2023/01/23 01:34:53;;;;;;;46.47;15.57;;;;;;;;;;5038126;28;20105;-81
2023/01/23 01:37:22;;;;;;;46.97;16.48;;;;;;;;;;5040015;28;20052;-78
2023/01/23 01:39:49;;;;;;;50.85;16.42;;;;;;;;;;5057036;28;20099;-81
2023/01/23 01:42:16;;;;;;;50.97;16.58;;;;;;;;;;5046287;28;20132;-80
2023/01/23 01:44:53;;;;;;;56.92;16.80;;;;;;;;;;5034836;28;20513;-81
2023/01/23 01:47:20;;;;;;;54.42;16.48;;;;;;;;;;5017864;28;20079;-81
2023/01/23 01:49:47;;;;;;;49.97;17.08;;;;;;;;;;5036100;28;20046;-81
2023/01/23 01:52:14;;;;;;;52.65;16.10;;;;;;;;;;5035632;28;20125;-82
2023/01/23 01:54:53;;;;;;;61.13;18.17;;;;;;;;;;5016921;28;20516;-80
2023/01/23 01:57:21;;;;;;;61.58;17.30;;;;;;;;;;5033828;28;20055;-81
2023/01/23 01:59:54;;;;;;;56.50;17.75;;;;;;;;;;5034059;28;20141;-81
2023/01/23 02:02:23;;;;;;;64.05;17.48;;;;;;;;;;5034290;28;20076;-81
2023/01/23 02:04:52;;;;;;;76.43;17.33;;;;;;;;;;5016138;28;20144;-80
2023/01/23 02:07:31;;;;;;;57.40;18.95;;;;;;;;;;5015605;28;20244;-78
2023/01/23 02:09:58;;;;;;;56.50;16.38;;;;;;;;;;5016418;28;20117;-80
2023/01/23 02:12:25;;;;;;;57.80;16.73;;;;;;;;;;5033610;28;20139;-81
2023/01/23 02:14:52;;;;;;;57.92;17.42;;;;;;;;;;5034190;28;20254;-81
2023/01/23 02:17:19;;;;;;;63.42;18.00;;;;;;;;;;5035394;28;20132;-80
2023/01/23 02:20:17;;;;;;;72.63;18.30;;;;;;;;;;5036073;28;20100;-81
2023/01/23 02:23:05;;;;;;;65.53;17.58;;;;;;;;;;4991852;28;20141;-81
2023/01/23 02:25:35;;;;;;;74.55;18.00;;;;;;;;;;5021770;28;20502;-80
2023/01/23 02:28:01;;;;;;;68.78;18.40;;;;;;;;;;5035888;28;20054;-82
2023/01/23 02:30:28;;;;;;;68.75;17.95;;;;;;;;;;5036563;28;20050;-81
2023/01/23 02:33:06;;;;;;;62.95;16.92;;;;;;;;;;5019700;28;20065;-81
2023/01/23 02:35:32;;;;;;;65.68;18.25;;;;;;;;;;5020853;28;20050;-80
2023/01/23 02:38:01;;;;;;;85.00;18.63;;;;;;;;;;5036700;28;20060;-81
2023/01/23 02:40:31;;;;;;;66.32;17.77;;;;;;;;;;5033741;28;20050;-81
2023/01/23 02:42:59;;;;;;;73.97;18.00;;;;;;;;;;5033785;28;20080;-81
2023/01/23 02:45:26;;;;;;;59.00;17.27;;;;;;;;;;5034283;28;20053;-81
2023/01/23 02:47:52;;;;;;;60.92;17.55;;;;;;;;;;5034689;28;20085;-81
2023/01/23 02:50:19;;;;;;;66.57;17.63;;;;;;;;;;5017549;28;20065;-82
2023/01/23 02:52:46;;;;;;;71.85;17.90;;;;;;;;;;5034491;28;20049;-82
2023/01/23 02:55:12;;;;;;;69.50;18.70;;;;;;;;;;5033957;28;20053;-81
2023/01/23 02:57:39;;;;;;;71.18;17.70;;;;;;;;;;5033384;28;20065;-80
2023/01/23 03:00:21;;;;;;;62.58;17.20;;;;;;;;;;5034147;28;20091;-79
2023/01/23 03:02:49;;;;;;;75.28;18.33;;;;;;;;;;5034758;28;20052;-80
2023/01/23 03:05:16;;;;;;;75.32;18.27;;;;;;;;;;5016211;28;20104;-80
2023/01/23 03:07:43;;;;;;;70.40;18.92;;;;;;;;;;5033910;28;20057;-80
2023/01/23 03:10:10;;;;;;;61.65;17.65;;;;;;;;;;5016260;28;20157;-80
2023/01/23 03:12:41;;;;;;;67.65;18.02;;;;;;;;;;5016757;28;20064;-81
2023/01/23 03:15:08;;;;;;;66.43;17.73;;;;;;;;;;5033874;28;20132;-81
2023/01/23 03:17:35;;;;;;;72.07;17.88;;;;;;;;;;5027267;28;20095;-80
2023/01/23 03:20:04;;;;;;;65.57;18.52;;;;;;;;;;5002402;28;20069;-79
2023/01/23 03:22:31;;;;;;;71.10;18.92;;;;;;;;;;5022908;28;20133;-80
2023/01/23 03:24:57;;;;;;;72.43;18.48;;;;;;;;;;5020462;28;20056;-81
2023/01/23 03:27:24;;;;;;;69.30;18.38;;;;;;;;;;5004560;28;20050;-79
2023/01/23 03:32:37;;;;;;;63.25;17.85;;;;;;;;;;5024582;28;20048;-81
2023/01/23 03:35:04;;;;;;;59.10;17.23;;;;;;;;;;5031736;28;20048;-80
2023/01/23 03:37:31;;;;;;;62.30;16.73;;;;;;;;;;5034258;28;20042;-79
2023/01/23 03:42:43;;;;;;;74.70;18.55;;;;;;;;;;5035003;28;20191;-80
2023/01/23 03:45:09;;;;;;;67.00;17.85;;;;;;;;;;5034190;28;20045;-79
2023/01/23 03:47:36;;;;;;;62.53;17.42;;;;;;;;;;5033779;28;20056;-80
2023/01/23 03:50:02;;;;;;;65.57;18.00;;;;;;;;;;5034091;28;20110;-79
2023/01/23 03:52:29;;;;;;;57.17;17.13;;;;;;;;;;5034397;28;20055;-80
2023/01/23 03:54:56;;;;;;;60.92;17.48;;;;;;;;;;5018612;28;20493;-80
2023/01/23 03:57:22;;;;;;;76.80;18.02;;;;;;;;;;5036470;28;20045;-80
2023/01/23 03:59:48;;;;;;;64.22;17.15;;;;;;;;;;5040264;28;20064;-79
2023/01/23 04:02:15;;;;;;;63.60;17.88;;;;;;;;;;5053765;28;20117;-80
2023/01/23 04:04:42;;;;;;;64.65;17.75;;;;;;;;;;5023543;28;20053;-81
2023/01/23 04:07:08;;;;;;;63.00;16.52;;;;;;;;;;5033760;28;20071;-81
2023/01/23 04:09:35;;;;;;;70.78;17.05;;;;;;;;;;5033332;28;20042;-80
2023/01/23 04:12:04;;;;;;;64.72;18.27;;;;;;;;;;5033428;28;20683;-81
2023/01/23 04:14:36;;;;;;;60.05;17.58;;;;;;;;;;5032929;28;20091;-80
2023/01/23 04:17:03;;;;;;;65.05;18.00;;;;;;;;;;5033328;28;20073;-80
2023/01/23 04:19:29;;;;;;;69.55;18.58;;;;;;;;;;5033349;28;20046;-81
2023/01/23 04:21:56;;;;;;;67.32;19.15;;;;;;;;;;5032583;28;20059;-80
2023/01/23 04:24:22;;;;;;;64.68;16.55;;;;;;;;;;5032550;28;20490;-81
2023/01/23 04:26:49;;;;;;;68.78;18.38;;;;;;;;;;5031181;28;20132;-79
2023/01/23 04:29:16;;;;;;;64.63;18.00;;;;;;;;;;5031387;28;20052;-80
2023/01/23 04:31:43;;;;;;;64.35;17.85;;;;;;;;;;5032132;28;20050;-81
2023/01/23 04:34:09;;;;;;;57.47;17.08;;;;;;;;;;5033678;28;20052;-80
2023/01/23 04:36:36;;;;;;;66.63;16.30;;;;;;;;;;5036120;28;20124;-80
2023/01/23 04:39:03;;;;;;;70.65;17.65;;;;;;;;;;5036291;28;20133;-81
2023/01/23 04:41:30;;;;;;;71.68;18.95;;;;;;;;;;5035271;28;20476;-81
2023/01/23 04:44:18;;;;;;;61.88;16.52;;;;;;;;;;5036027;28;20298;-79
2023/01/23 04:46:43;;;;;;;65.47;18.17;;;;;;;;;;5035647;28;20053;-81
2023/01/23 04:49:12;;;;;;;73.15;17.75;;;;;;;;;;5034529;28;20456;-80
2023/01/23 04:51:38;;;;;;;59.50;16.95;;;;;;;;;;5036594;28;20046;-79
2023/01/23 04:54:05;;;;;;;61.47;16.67;;;;;;;;;;5039445;28;20052;-81
2023/01/23 04:56:31;;;;;;;58.90;16.75;;;;;;;;;;5045063;28;20046;-80
2023/01/23 04:58:58;;;;;;;63.15;18.00;;;;;;;;;;5048969;28;20049;-79
2023/01/23 05:01:24;;;;;;;63.08;17.52;;;;;;;;;;5045330;28;20065;-80
2023/01/23 05:03:51;;;;;;;70.72;17.55;;;;;;;;;;5045316;28;20080;-80
2023/01/23 05:06:17;;;;;;;67.60;17.55;;;;;;;;;;5041419;28;20458;-80
2023/01/23 05:08:44;;;;;;;80.85;17.92;;;;;;;;;;5041219;28;20080;-80
2023/01/23 05:11:11;;;;;;;66.60;17.00;;;;;;;;;;5039274;28;20053;-81
2023/01/23 05:13:37;;;;;;;60.17;16.67;;;;;;;;;;5038573;28;20188;-81
2023/01/23 05:16:06;;;;;;;69.63;17.75;;;;;;;;;;5040369;28;20049;-80
2023/01/23 05:18:33;;;;;;;63.40;17.08;;;;;;;;;;5035349;28;20048;-79
2023/01/23 05:20:59;;;;;;;61.53;17.55;;;;;;;;;;5035982;28;20064;-80
2023/01/23 05:23:26;;;;;;;67.28;17.98;;;;;;;;;;5037026;28;20420;-79
2023/01/23 05:25:52;;;;;;;64.97;17.75;;;;;;;;;;5035844;28;20057;-79
2023/01/23 05:28:19;;;;;;;73.18;18.85;;;;;;;;;;5035119;28;20506;-79
2023/01/23 05:30:45;;;;;;;66.18;17.67;;;;;;;;;;5035338;28;20051;-78
2023/01/23 05:33:12;;;;;;;67.97;18.08;;;;;;;;;;5036531;28;20045;-80
2023/01/23 05:35:38;;;;;;;71.60;18.73;;;;;;;;;;5036287;28;20064;-81
2023/01/23 05:38:07;;;;;;;72.43;18.42;;;;;;;;;;5036955;28;20054;-81
2023/01/23 05:40:33;;;;;;;59.20;17.02;;;;;;;;;;5037505;28;20057;-81
2023/01/23 05:42:59;;;;;;;58.17;16.77;;;;;;;;;;5038390;28;20068;-82
2023/01/23 05:45:26;;;;;;;64.45;16.67;;;;;;;;;;5036622;28;20054;-82
2023/01/23 05:47:54;;;;;;;62.03;17.00;;;;;;;;;;5036386;28;20050;-81
2023/01/23 05:50:24;;;;;;;61.78;17.40;;;;;;;;;;5035910;28;20059;-81
2023/01/23 05:52:50;;;;;;;63.47;16.15;;;;;;;;;;5036883;28;20085;-80
2023/01/23 05:55:17;;;;;;;54.80;16.02;;;;;;;;;;5034931;28;20136;-80
2023/01/23 05:57:43;;;;;;;62.10;17.10;;;;;;;;;;5034739;28;20223;-80
2023/01/23 06:00:13;;;;;;;61.95;17.38;;;;;;;;;;5033668;28;20640;-80
2023/01/23 06:02:39;;;;;;;59.40;16.10;;;;;;;;;;5034110;28;20052;-80
2023/01/23 06:05:06;;;;;;;62.90;16.98;;;;;;;;;;5037589;28;20053;-81
2023/01/23 06:07:32;;;;;;;64.90;17.30;;;;;;;;;;5035915;28;20060;-81
2023/01/23 06:09:59;;;;;;;52.10;16.08;;;;;;;;;;5033927;28;20046;-81
2023/01/23 06:12:25;;;;;;;67.40;16.77;;;;;;;;;;5035288;28;20052;-82
2023/01/23 06:14:52;;;;;;;49.47;15.00;;;;;;;;;;5025580;28;20420;-81
2023/01/23 06:17:18;;;;;;;55.50;15.55;;;;;;;;;;5037469;28;20622;-78
2023/01/23 06:19:44;;;;;;;58.30;16.92;;;;;;;;;;5037318;28;20556;-81
2023/01/23 06:22:11;;;;;;;58.33;15.43;;;;;;;;;;5042955;28;20057;-80
2023/01/23 06:24:37;;;;;;;60.80;16.63;;;;;;;;;;5054324;28;20042;-80
2023/01/23 06:27:07;;;;;;;51.35;14.45;;;;;;;;;;5053257;28;20059;-81
2023/01/23 06:29:36;;;;;;;56.28;15.85;;;;;;;;;;5036689;28;20050;-81
2023/01/23 06:32:03;;;;;;;66.50;16.35;;;;;;;;;;5036266;28;20056;-81
2023/01/23 06:34:29;;;;;;;56.40;15.63;;;;;;;;;;5035702;28;20728;-81
2023/01/23 06:36:56;;;;;;;55.10;16.08;;;;;;;;;;5032158;28;20049;-80
2023/01/23 06:39:22;;;;;;;52.53;15.52;;;;;;;;;;5024591;28;20128;-80
2023/01/23 06:41:48;;;;;;;63.17;16.52;;;;;;;;;;5012516;28;20065;-80
2023/01/23 06:44:15;;;;;;;61.70;16.55;;;;;;;;;;5029625;28;20445;-80
2023/01/23 06:46:41;;;;;;;67.40;16.80;;;;;;;;;;5030331;28;20083;-80
2023/01/23 06:49:08;;;;;;;58.50;16.80;;;;;;;;;;5031125;28;20059;-80
2023/01/23 06:51:35;;;;;;;59.00;16.33;;;;;;;;;;5020319;28;20576;-81
2023/01/23 06:54:01;;;;;;;52.00;16.75;;;;;;;;;;5031186;28;20063;-80
2023/01/23 06:56:28;;;;;;;58.22;16.40;;;;;;;;;;5030157;28;20049;-80
2023/01/23 06:58:54;;;;;;;67.85;16.95;;;;;;;;;;5010860;28;20057;-80
2023/01/23 07:01:20;;;;;;;66.38;17.98;;;;;;;;;;5031039;28;20057;-80
2023/01/23 07:03:47;;;;;;;53.83;16.20;;;;;;;;;;5030020;28;20053;-80
2023/01/23 07:06:14;;;;;;;65.60;16.17;;;;;;;;;;5027797;28;20083;-80
2023/01/23 07:08:40;;;;;;;57.90;16.65;;;;;;;;;;5032600;28;20554;-80
2023/01/23 07:11:07;;;;;;;63.00;16.33;;;;;;;;;;5030488;28;20048;-80
2023/01/23 07:13:34;;;;;;;58.95;17.13;;;;;;;;;;5032414;28;20069;-79
2023/01/23 07:16:00;;;;;;;64.55;16.20;;;;;;;;;;5023405;28;20045;-79
2023/01/23 07:18:29;;;;;;;66.28;16.23;;;;;;;;;;5032679;28;20053;-80
2023/01/23 07:20:55;;;;;;;63.40;17.20;;;;;;;;;;5032953;28;20171;-79
2023/01/23 07:23:22;;;;;;;64.72;16.73;;;;;;;;;;5034250;28;20064;-80
2023/01/23 07:25:49;;;;;;;71.78;19.23;;;;;;;;;;5034247;28;20083;-80
2023/01/23 07:28:15;;;;;;;60.20;18.35;;;;;;;;;;5032744;28;20480;-80
2023/01/23 07:30:41;;;;;;;69.60;18.35;;;;;;;;;;5033320;28;20056;-78
2023/01/23 07:33:08;;;;;;;78.18;18.15;;;;;;;;;;5033098;28;20041;-81
2023/01/23 07:35:37;;;;;;;63.17;17.00;;;;;;;;;;5026410;28;20050;-80
2023/01/23 07:38:03;;;;;;;67.28;18.92;;;;;;;;;;5015139;28;20676;-78
2023/01/23 07:40:29;;;;;;;56.95;16.38;;;;;;;;;;5025767;28;20128;-79
2023/01/23 07:42:56;;;;;;;61.20;18.08;;;;;;;;;;5034732;28;20132;-79
2023/01/23 07:45:22;;;;;;;52.50;16.02;;;;;;;;;;5018392;28;20188;-79
2023/01/23 07:47:49;;;;;;;62.28;16.95;;;;;;;;;;5035827;28;20049;-78
2023/01/23 07:50:15;;;;;;;63.00;17.05;;;;;;;;;;5035394;28;20079;-78
2023/01/23 07:52:42;;;;;;;59.42;16.35;;;;;;;;;;5038282;28;20049;-78
2023/01/23 07:55:08;;;;;;;61.70;16.10;;;;;;;;;;5036697;28;20053;-79
2023/01/23 07:57:34;;;;;;;61.53;17.13;;;;;;;;;;5035544;28;20052;-79
2023/01/23 08:00:01;;;;;;;56.13;17.33;;;;;;;;;;5038576;28;20490;-79
2023/01/23 08:02:27;;;;;;;71.43;17.17;;;;;;;;;;5040723;28;20049;-79
2023/01/23 08:04:54;;;;;;;59.45;16.70;;;;;;;;;;5035754;28;20049;-80
2023/01/23 08:07:20;;;;;;;58.65;16.33;;;;;;;;;;5035885;28;20124;-79
2023/01/23 08:09:47;;;;;;;65.60;16.42;;;;;;;;;;5039822;28;20137;-79
2023/01/23 08:12:13;;;;;;;66.55;18.13;;;;;;;;;;5025935;28;20494;-79
2023/01/23 08:14:40;;;;;;;58.92;16.88;;;;;;;;;;5032758;28;20041;-79
2023/01/23 08:17:06;;;;;;;60.97;16.02;;;;;;;;;;5027946;28;20113;-79
2023/01/23 08:19:33;;;;;;;60.45;16.98;;;;;;;;;;5031814;28;20060;-79
2023/01/23 08:21:59;;;;;;;59.08;16.92;;;;;;;;;;5032756;28;20073;-80
2023/01/23 08:24:25;;;;;;;58.35;16.63;;;;;;;;;;5032157;28;20045;-78
2023/01/23 08:26:52;;;;;;;54.45;16.83;;;;;;;;;;5032301;28;20105;-80
2023/01/23 08:29:18;;;;;;;59.90;16.08;;;;;;;;;;5014672;28;20045;-80
2023/01/23 08:31:45;;;;;;;58.78;16.83;;;;;;;;;;5030470;28;20046;-80
2023/01/23 08:34:11;;;;;;;58.08;18.25;;;;;;;;;;5030146;28;20104;-80
2023/01/23 08:36:38;;;;;;;59.47;17.05;;;;;;;;;;5030825;28;20048;-80
2023/01/23 08:39:04;;;;;;;57.08;16.73;;;;;;;;;;5031648;28;20081;-79
2023/01/23 08:41:31;;;;;;;50.90;16.15;;;;;;;;;;5031635;28;20053;-80
2023/01/23 08:44:00;;;;;;;54.17;16.65;;;;;;;;;;5032826;28;20064;-80
2023/01/23 08:46:28;;;;;;;55.88;16.63;;;;;;;;;;5031681;28;20060;-80
2023/01/23 08:48:54;;;;;;;46.75;15.77;;;;;;;;;;5037824;28;20200;-79
2023/01/23 08:51:20;;;;;;;56.95;15.45;;;;;;;;;;5053114;28;20093;-79
2023/01/23 08:53:50;;;;;;;46.33;15.85;;;;;;;;;;5038187;28;20069;-79
2023/01/23 08:56:17;;;;;;;40.08;14.05;;;;;;;;;;5031848;28;20052;-79
2023/01/23 08:58:44;;;;;;;38.00;13.40;;;;;;;;;;5031282;28;20045;-80
2023/01/23 09:01:14;;;;;;;44.15;14.98;;;;;;;;;;5031915;28;20049;-80
2023/01/23 09:03:40;;;;;;;52.42;14.93;;;;;;;;;;5031474;28;20051;-80
2023/01/23 09:06:08;;;;;;;46.40;15.00;;;;;;;;;;5031412;28;20065;-80
2023/01/23 09:08:35;;;;;;;40.67;14.27;;;;;;;;;;5031571;28;20057;-80
2023/01/23 09:11:03;;;;;;;44.65;14.68;;;;;;;;;;5030997;28;20343;-79
2023/01/23 09:13:29;;;;;;;43.75;14.45;;;;;;;;;;5031765;28;20053;-80
2023/01/23 09:15:56;;;;;;;45.30;14.82;;;;;;;;;;5032171;28;20055;-80
2023/01/23 09:18:23;;;;;;;39.00;13.95;;;;;;;;;;5030192;28;20045;-80
2023/01/23 09:20:50;;;;;;;42.67;14.40;;;;;;;;;;5032085;28;20057;-79
2023/01/23 09:23:17;;;;;;;39.65;13.48;;;;;;;;;;5035739;28;20052;-80
2023/01/23 09:25:46;;;;;;;40.97;14.50;;;;;;;;;;5036177;28;20053;-79
2023/01/23 09:28:23;;;;;;;46.17;14.20;;;;;;;;;;5034981;28;20149;-79
2023/01/23 09:30:50;;;;;;;40.55;14.10;;;;;;;;;;5035306;28;20148;-80
2023/01/23 09:33:16;;;;;;;39.78;14.00;;;;;;;;;;5035002;28;20049;-80
2023/01/23 09:35:44;;;;;;;45.53;14.20;;;;;;;;;;5035902;28;20053;-80
2023/01/23 09:38:10;;;;;;;40.22;13.77;;;;;;;;;;5035206;28;20049;-80
2023/01/23 09:40:44;;;;;;;46.50;14.57;;;;;;;;;;5036920;28;20049;-80
2023/01/23 09:43:13;;;;;;;46.28;13.85;;;;;;;;;;5019819;28;20049;-79
2023/01/23 09:45:42;;;;;;;40.55;13.73;;;;;;;;;;5035910;28;20057;-80
2023/01/23 09:48:30;;;;;;;38.30;14.43;;;;;;;;;;5037157;28;20081;-79
2023/01/23 09:51:00;;;;;;;38.90;14.50;;;;;;;;;;5035272;28;20042;-79
2023/01/23 09:53:33;;;;;;;39.13;14.38;;;;;;;;;;5035491;28;20505;-78
2023/01/23 09:56:03;;;;;;;37.15;14.18;;;;;;;;;;5016842;28;20446;-79
2023/01/23 09:58:33;;;;;;;42.28;14.68;;;;;;;;;;5034163;28;20057;-80
2023/01/23 10:01:00;;;;;;;40.42;14.32;;;;;;;;;;5034270;28;20060;-79
2023/01/23 10:03:28;;;;;;;46.63;15.15;;;;;;;;;;5034370;28;20045;-80
2023/01/23 10:06:13;;;;;;;45.95;15.20;;;;;;;;;;5034806;28;20045;-79
2023/01/23 10:08:40;;;;;;;42.05;14.95;;;;;;;;;;5016306;28;20068;-80
2023/01/23 10:11:15;;;;;;;47.22;15.90;;;;;;;;;;5034712;28;20046;-80
2023/01/23 10:13:42;;;;;;;;;;;;;;;;;;5035302;28;20041;-79
2023/01/23 10:16:17;;;;;;;45.22;15.10;;;;;;;;;;5034476;28;20517;-79
2023/01/23 10:18:47;;;;;;;46.03;14.80;;;;;;;;;;5029022;28;20073;-80
2023/01/23 10:21:28;;;;;;;46.95;15.32;;;;;;;;;;5035120;28;20056;-79
2023/01/23 10:24:03;;;;;;;43.13;15.27;;;;;;;;;;5035158;28;20055;-76
2023/01/23 10:26:32;;;;;;;48.55;15.85;;;;;;;;;;5034564;28;20569;-80
2023/01/23 10:29:09;;;;;;;44.28;15.38;;;;;;;;;;5034730;28;20168;-79
2023/01/23 10:31:43;;;;;;;37.53;14.45;;;;;;;;;;5034503;28;20049;-81
2023/01/23 10:34:09;;;;;;;44.35;15.40;;;;;;;;;;5034586;28;20049;-81
2023/01/23 10:36:41;;;;;;;40.10;15.23;;;;;;;;;;5035718;28;20061;-81
2023/01/23 10:39:24;;;;;;;45.33;14.48;;;;;;;;;;5035158;28;20064;-81
2023/01/23 10:41:51;;;;;;;46.42;15.98;;;;;;;;;;5036221;28;20050;-81
2023/01/23 10:44:27;;;;;;;43.17;15.40;;;;;;;;;;5018717;28;20049;-81
2023/01/23 10:46:55;;;;;;;42.42;15.23;;;;;;;;;;5036976;28;20053;-78
2023/01/23 10:49:30;;;;;;;45.10;15.38;;;;;;;;;;5039760;28;20562;-79
2023/01/23 10:51:56;;;;;;;42.00;16.10;;;;;;;;;;5034694;28;20132;-78
2023/01/23 10:54:27;;;;;;;44.55;15.63;;;;;;;;;;5034054;28;20072;-79
2023/01/23 10:57:00;;;;;;;48.47;16.33;;;;;;;;;;5033267;28;20459;-79
2023/01/23 10:59:38;;;;;;;46.28;15.55;;;;;;;;;;5017913;28;20052;-79
2023/01/23 11:02:14;;;;;;;39.13;14.52;;;;;;;;;;5034071;28;20143;-79
2023/01/23 11:04:43;;;;;;;45.30;16.50;;;;;;;;;;5035098;28;20054;-80
2023/01/23 11:07:20;;;;;;;39.50;15.95;;;;;;;;;;5030245;28;20064;-79
2023/01/23 11:09:49;;;;;;;44.10;15.77;;;;;;;;;;5026768;28;20057;-79
2023/01/23 11:12:20;;;;;;;42.10;15.60;;;;;;;;;;5030531;28;20055;-80
2023/01/23 11:14:46;;;;;;;43.85;15.27;;;;;;;;;;5050130;28;20037;-79
2023/01/23 11:17:13;;;;;;;45.70;15.23;;;;;;;;;;5050314;28;20060;-79
2023/01/23 11:19:41;;;;;;;46.38;15.77;;;;;;;;;;5029909;28;20129;-80
2023/01/23 11:22:26;;;;;;;45.65;16.00;;;;;;;;;;5030789;28;20057;-79
2023/01/23 11:24:53;;;;;;;42.28;15.98;;;;;;;;;;5027920;28;20129;-79
2023/01/23 11:27:23;;;;;;;52.75;16.48;;;;;;;;;;5011500;28;20117;-78
2023/01/23 11:30:07;;;;;;;42.00;15.40;;;;;;;;;;5029439;28;20061;-79
2023/01/23 11:32:41;;;;;;;44.65;15.88;;;;;;;;;;5030529;28;20088;-79
2023/01/23 11:35:16;;;;;;;46.50;15.90;;;;;;;;;;5015977;28;20050;-79
2023/01/23 11:37:43;;;;;;;46.78;15.50;;;;;;;;;;5003184;28;20084;-79
2023/01/23 11:40:09;;;;;;;44.70;15.85;;;;;;;;;;5029980;28;20049;-79
2023/01/23 11:42:38;;;;;;;46.58;16.08;;;;;;;;;;5011914;28;20057;-78
2023/01/23 11:45:31;;;;;;;46.10;16.58;;;;;;;;;;5029686;28;20060;-78
2023/01/23 11:48:21;;;;;;;52.97;15.20;;;;;;;;;;4999229;28;20067;-79
2023/01/23 11:50:48;;;;;;;57.17;16.77;;;;;;;;;;5027285;28;20053;-78
2023/01/23 11:53:30;;;;;;;46.13;16.38;;;;;;;;;;5013679;28;20061;-79
2023/01/23 11:56:16;;;;;;;50.88;15.93;;;;;;;;;;5031507;28;20505;-79
2023/01/23 11:59:11;;;;;;;45.55;15.93;;;;;;;;;;5030768;28;20050;-79
2023/01/23 12:01:43;;;;;;;45.72;15.45;;;;;;;;;;5002113;28;20068;-79
2023/01/23 12:04:35;;;;;;;50.08;16.67;;;;;;;;;;5032548;28;20506;-79
2023/01/23 12:07:07;;;;;;;48.70;16.95;;;;;;;;;;5034137;28;20064;-78
2023/01/23 12:09:39;;;;;;;46.05;16.33;;;;;;;;;;5033629;28;20642;-79
2023/01/23 12:12:15;;;;;;;46.55;16.80;;;;;;;;;;5013689;28;20057;-79
2023/01/23 12:14:42;;;;;;;47.72;16.77;;;;;;;;;;5034415;28;20065;-78
2023/01/23 12:17:23;;;;;;;48.00;16.92;;;;;;;;;;5032142;28;20041;-79
2023/01/23 12:20:00;;;;;;;49.70;17.05;;;;;;;;;;5032810;28;20069;-78
2023/01/23 12:22:32;;;;;;;51.20;17.48;;;;;;;;;;5031551;28;20134;-79
2023/01/23 12:25:12;;;;;;;47.45;16.95;;;;;;;;;;5013700;28;20045;-78
2023/01/23 12:27:43;;;;;;;46.88;17.35;;;;;;;;;;5031299;28;20049;-78
2023/01/23 12:30:28;;;;;;;45.55;16.73;;;;;;;;;;5031125;28;20510;-79
2023/01/23 12:32:57;;;;;;;45.55;16.92;;;;;;;;;;5029677;28;20705;-78
2023/01/23 12:35:30;;;;;;;44.13;16.42;;;;;;;;;;5032696;28;20050;-78
2023/01/23 12:38:14;;;;;;;48.65;16.60;;;;;;;;;;5014597;28;20145;-79
2023/01/23 12:40:43;;;;;;;46.65;17.05;;;;;;;;;;5033125;28;20119;-78
2023/01/23 12:43:28;;;;;;;49.63;16.80;;;;;;;;;;5033718;28;20048;-79
2023/01/23 12:46:02;;;;;;;50.85;17.58;;;;;;;;;;5033301;28;20049;-78
2023/01/23 12:49:01;;;;;;;50.33;17.02;;;;;;;;;;5015805;28;20067;-78
2023/01/23 12:51:35;;;;;;;53.92;18.60;;;;;;;;;;5002406;28;20064;-78
2023/01/23 12:54:03;;;;;;;52.50;17.70;;;;;;;;;;5031776;28;20770;-79
2023/01/23 12:56:32;;;;;;;43.88;15.57;;;;;;;;;;5034757;28;20042;-78
2023/01/23 12:59:10;;;;;;;53.10;16.90;;;;;;;;;;5035132;28;20124;-79
2023/01/23 13:01:51;;;;;;;55.35;17.65;;;;;;;;;;5035893;28;20112;-78
2023/01/23 13:04:31;;;;;;;50.97;17.05;;;;;;;;;;5035527;28;20064;-78
2023/01/23 13:07:05;;;;;;;49.22;17.55;;;;;;;;;;5035049;28;20053;-79
2023/01/23 13:09:40;;;;;;;57.53;18.95;;;;;;;;;;5036494;28;20057;-79
2023/01/23 13:12:17;;;;;;;46.75;16.83;;;;;;;;;;5036283;28;20045;-79
2023/01/23 13:14:50;;;;;;;53.90;17.45;;;;;;;;;;5038702;28;20067;-79
2023/01/23 13:17:36;;;;;;;50.35;17.70;;;;;;;;;;5018924;28;20057;-78
2023/01/23 13:23:19;;;;;;;54.97;17.55;;;;;;;;;;5024846;28;20053;-79
2023/01/23 13:25:45;;;;;;;58.55;17.73;;;;;;;;;;5021932;28;20145;-79
2023/01/23 13:28:30;;;;;;;59.22;18.00;;;;;;;;;;5026037;28;20485;-78
2023/01/23 13:31:33;;;;;;;58.67;18.13;;;;;;;;;;5023829;28;20119;-78
2023/01/23 13:34:00;;;;;;;62.75;17.42;;;;;;;;;;5013849;28;20092;-78
2023/01/23 13:36:41;;;;;;;59.58;18.63;;;;;;;;;;5024922;28;20056;-79
2023/01/23 13:39:17;;;;;;;65.68;19.23;;;;;;;;;;5014932;28;20061;-79
2023/01/23 13:41:44;;;;;;;69.78;18.90;;;;;;;;;;5013956;28;20046;-79
2023/01/23 13:44:17;;;;;;;72.32;19.50;;;;;;;;;;5031209;28;20402;-79
2023/01/23 13:49:49;;;;;;;73.88;19.40;;;;;;;;;;5034135;28;20053;-77
2023/01/23 13:50:24;;;;;;;62.10;17.88;;;;;;;;;;4952645;29;20059;-78
2023/01/23 13:56:38;;;;;;;59.15;17.33;;;;;;;;;;4839831;29;20058;-79
2023/01/23 13:59:19;;;;;;;55.30;18.60;;;;;;;;;;4803880;29;20070;-79
2023/01/23 14:05:21;;;;;;;80.60;19.50;;;;;;;;;;4768014;30;20068;-79
2023/01/23 14:08:04;;;;;;;64.13;18.40;;;;;;;;;;4733873;30;20515;-78
2023/01/23 14:10:47;;;;;;;56.50;18.85;;;;;;;;;;4735063;30;20060;-79
2023/01/23 14:13:27;;;;;;;70.22;19.13;;;;;;;;;;4746647;30;20650;-79
2023/01/23 14:16:12;;;;;;;65.97;18.55;;;;;;;;;;4716710;30;20130;-79
2023/01/23 14:18:54;;;;;;;76.80;19.08;;;;;;;;;;4772469;30;20055;-79
2023/01/23 14:21:40;;;;;;;84.25;17.92;;;;;;;;;;4765791;30;20162;-79
2023/01/23 14:24:22;;;;;;;62.28;18.95;;;;;;;;;;4780358;30;20073;-80
2023/01/23 14:26:50;;;;;;;67.45;18.27;;;;;;;;;;4811486;29;20046;-77
2023/01/23 14:29:20;;;;;;;63.58;17.55;;;;;;;;;;4812910;29;20435;-78
2023/01/23 14:31:47;;;;;;;64.78;16.70;;;;;;;;;;4825934;29;20093;-79
2023/01/23 14:34:15;;;;;;;62.15;17.85;;;;;;;;;;4839117;29;20156;-79
2023/01/23 14:36:50;;;;;;;93.70;19.10;;;;;;;;;;4838647;29;20529;-78
2023/01/23 14:39:17;;;;;;;68.88;18.48;;;;;;;;;;4838842;29;20052;-78
2023/01/23 14:41:44;;;;;;;79.20;18.63;;;;;;;;;;4838241;29;20054;-78
2023/01/23 14:44:38;;;;;;;64.57;17.88;;;;;;;;;;4867231;29;20502;-77
2023/01/23 14:47:06;;;;;;;83.22;17.98;;;;;;;;;;4969339;28;20050;-78
2023/01/23 14:49:35;;;;;;;97.35;19.42;;;;;;;;;;5022303;28;20520;-78
2023/01/23 14:52:03;;;;;;;64.03;18.70;;;;;;;;;;5021992;28;20477;-79